23 maggio 2022

Tempo Codice Tempo metereologico Temp. Vista Nuvole Vento METAR/SPECI
18:00
V
22 °C 10 km+ 5.400 ft 240°   240° 5 kt METAR LFMH 231600Z AUTO 24005KT 190V280 9999 FEW044 BKN054 OVC068 22/13 Q1008
17:30
V
22 °C 10 km+ 7.800 ft 260°   260° 9 kt METAR LFMH 231530Z AUTO 26009KT 230V300 9999 FEW054/// BKN078/// OVC088/// //////CB 22/13 Q1007
17:00
V
23 °C 10 km+ 6.800 ft 250°   250° 10 kt METAR LFMH 231500Z AUTO 25010KT 200V280 9999 FEW047 BKN068 OVC078 23/14 Q1007
16:30
V
22 °C 10 km+ 4.200 ft 200°   200° 5 kt METAR LFMH 231430Z AUTO 20005KT 160V230 9999 BKN042 BKN050 BKN068 22/15 Q1007
16:00
V
21 °C 10 km+ 4.500 ft 170°   170° 8 kt METAR LFMH 231400Z AUTO 17008KT 140V200 9999 BKN045 BKN054 BKN076 21/15 Q1007
15:30
V
20 °C 10 km+ 4.200 ft 160°   160° 7 kt METAR LFMH 231330Z AUTO 16007KT 9999 BKN042 OVC068 20/15 Q1007
15:00
V
20 °C 10 km+ - 190°   190° 8 kt METAR LFMH 231300Z AUTO 19008KT 9999 NSC 20/14 Q1007
14:30
V
19 °C 10 km+ 5.800 ft 210°   210° 9 kt METAR LFMH 231230Z AUTO 21009KT 180V260 9999 FEW028/// BKN058/// OVC070/// ///CB 19/14 Q1007
14:00
V
19 °C 10 km+ - 120°   120° 7 kt METAR LFMH 231200Z AUTO 12007KT 090V160 9999 ///CB 19/14 Q1007
13:30
V
18 °C 10 km+ 10.000 ft 190°   190° 3 kt METAR LFMH 231130Z AUTO 19003KT 120V270 9999 FEW033/// BKN100/// BKN130/// //////CB 18/14 Q1007
12:30
V
24 °C 10 km+ - 300°   300° 10 kt METAR LFMH 231030Z AUTO 30010KT 260V330 9999 //////CB 24/11 Q1006
12:00
V
26 °C 10 km+ 5.600 ft 250°   250° 6 kt METAR LFMH 231000Z AUTO 25006KT 210V300 9999 BKN056/// BKN072/// OVC084/// ///CB 26/11 Q1006
11:30
V
26 °C 10 km+ 5.600 ft 200°   200° 4 kt METAR LFMH 230930Z AUTO 20004KT 150V260 9999 OVC056 26/12 Q1006
11:00
V
27 °C 10 km+ - 240°   240° 4 kt METAR LFMH 230900Z AUTO 24004KT 170V330 9999 SCT058 27/13 Q1006
10:30
V
26 °C 10 km+ - 150°   150° 6 kt METAR LFMH 230830Z AUTO 15006KT 100V190 CAVOK 26/14 Q1006
10:00
V
25 °C 10 km+ - 130°   130° 6 kt METAR LFMH 230800Z AUTO 13006KT 100V160 CAVOK 25/14 Q1007
09:30
V
24 °C 10 km+ - 140°   140° 4 kt METAR LFMH 230730Z AUTO 14004KT 100V180 CAVOK 24/14 Q1007
09:00
V
24 °C 10 km+ - 120°   120° 3 kt METAR LFMH 230700Z AUTO 12003KT 070V170 CAVOK 24/15 Q1007
08:30
V
22 °C 10 km+ - 040°   040° 4 kt METAR LFMH 230630Z AUTO 04004KT 350V100 CAVOK 22/15 Q1007
08:00
V
21 °C 10 km+ - Var   Var 1 kt METAR LFMH 230600Z AUTO VRB01KT CAVOK 21/15 Q1007
07:30
V
20 °C 10 km+ - Var   Var 2 kt METAR LFMH 230530Z AUTO VRB02KT CAVOK 20/15 Q1007
07:00
V
19 °C 10 km+ - 150°   150° 5 kt METAR LFMH 230500Z AUTO 15005KT CAVOK 19/14 Q1007
06:30
V
19 °C 10 km+ - 150°   150° 5 kt METAR LFMH 230430Z AUTO 15005KT 9999 //////TCU 19/14 Q1007
06:00
V
20 °C 10 km+ - 230°   230° 4 kt METAR LFMH 230400Z AUTO 23004KT 200V260 CAVOK 20/14 Q1007
05:30
V
19 °C 10 km+ - 270°   270° 3 kt METAR LFMH 230330Z AUTO 27003KT 190V360 CAVOK 19/14 Q1007
05:00
V
21 °C 10 km+ - 200°   200° 6 kt METAR LFMH 230300Z AUTO 20006KT CAVOK 21/14 Q1007
04:30
V
18 °C 10 km+ - 190°   190° 4 kt METAR LFMH 230230Z AUTO 19004KT CAVOK 18/14 Q1007
04:00
V
19 °C 10 km+ - 170°   170° 7 kt METAR LFMH 230200Z AUTO 17007KT CAVOK 19/14 Q1007
03:30
V
21 °C 10 km+ - 140°   140° 4 kt METAR LFMH 230130Z AUTO 14004KT CAVOK 21/14 Q1008
03:00
V
20 °C 10 km+ - 170°   170° 7 kt METAR LFMH 230100Z AUTO 17007KT CAVOK 20/14 Q1008
02:30
V
20 °C 10 km+ - 120°   120° 5 kt METAR LFMH 230030Z AUTO 12005KT CAVOK 20/15 Q1008
02:00
V
21 °C 10 km+ - Var   Var 2 kt METAR LFMH 230000Z AUTO VRB02KT CAVOK 21/15 Q1008
01:30
V
22 °C 10 km+ - 190°   190° 8 kt METAR LFMH 222330Z AUTO 19008KT CAVOK 22/15 Q1007
01:00
V
21 °C 10 km+ - 190°   190° 7 kt METAR LFMH 222300Z AUTO 19007KT 160V220 CAVOK 21/16 Q1007
00:30
V
22 °C 10 km+ - 160°   160° 11 kt METAR LFMH 222230Z AUTO 16011KT CAVOK 22/16 Q1007
00:00
V
23 °C 10 km+ - 170°   170° 9 kt METAR LFMH 222200Z AUTO 17009KT CAVOK 23/16 Q1008

22 maggio 2022

Tempo Codice Tempo metereologico Temp. Vista Nuvole Vento METAR/SPECI
23:30
V
22 °C 10 km+ - 210°   210° 9 kt METAR LFMH 222130Z AUTO 21009KT 180V250 CAVOK 22/17 Q1008
23:00
V
22 °C 10 km+ - 190°   190° 6 kt METAR LFMH 222100Z AUTO 19006KT 170V230 CAVOK 22/18 Q1008
22:30
V
22 °C 10 km+ - 170°   170° 9 kt METAR LFMH 222030Z AUTO 17009KT CAVOK 22/18 Q1009
22:00
V
22 °C 10 km+ - 170°   170° 7 kt METAR LFMH 222000Z AUTO 17007KT 130V200 CAVOK 22/18 Q1009
21:30
V
22 °C 10 km+ - 230°   230° 7 kt METAR LFMH 221930Z AUTO 23007KT 180V270 CAVOK 22/18 Q1009
21:00
V
21 °C 10 km+ - 170°   170° 6 kt METAR LFMH 221900Z AUTO 17006KT 100V250 CAVOK 21/19 Q1009
20:30
V
20 °C 10 km+ - 180°   180° 6 kt METAR LFMH 221830Z AUTO 18006KT 150V240 CAVOK 20/17 Q1009
20:00
V
21 °C 10 km+ - 260°   260° 6 kt METAR LFMH 221800Z AUTO 26006KT 150V300 9999 //////TCU 21/18 Q1009
19:30
V
21 °C 10 km+ 11.000 ft 090°   090° 5 kt METAR LFMH 221730Z AUTO 09005KT 050V160 9999 -RA VCTS FEW040/// BKN110/// OVC130/// //////CB 21/18 Q1010
19:00
V
23 °C 10 km+ - 230°   230° 11 kt METAR LFMH 221700Z AUTO 23011KT 200V310 9999 TSRA ///CB 23/15 Q1011
18:30
V
25 °C 10 km+ 6.400 ft 320°   320° 5 kt METAR LFMH 221630Z AUTO 32005KT 260V010 9999 -TSRA FEW021/// BKN064/// BKN088/// ///CB 25/20 Q1010
18:00
V
28 °C 10 km+ - 120°   120° 10 kt METAR LFMH 221600Z AUTO 12010KT 100V160 9999 TSRA ///CB 28/17 Q1009
17:30
V
30 °C 10 km+ - 090°   090° 6 kt METAR LFMH 221530Z AUTO 09006KT 050V120 9999 TS ///CB 30/16 Q1009
17:00
V
32 °C 10 km+ - 100°   100° 4 kt METAR LFMH 221500Z AUTO 10004KT 030V180 9999 //////TCU 32/16 Q1009
16:30
V
32 °C 10 km+ - 070°   070° 5 kt METAR LFMH 221430Z AUTO 07005KT 340V150 CAVOK 32/16 Q1009
16:00
V
31 °C 10 km+ - 070°   070° 5 kt METAR LFMH 221400Z AUTO 07005KT 360V130 CAVOK 31/16 Q1010
15:30
V
31 °C 10 km+ - 030°   030° 7 kt METAR LFMH 221330Z AUTO 03007KT 350V060 CAVOK 31/16 Q1010
15:00
V
31 °C 10 km+ - 360°   360° 4 kt METAR LFMH 221300Z AUTO 36004KT 300V060 CAVOK 31/16 Q1011
14:30
V
31 °C 10 km+ - 310°   310° 5 kt METAR LFMH 221230Z AUTO 31005KT 240V050 CAVOK 31/15 Q1011
14:00
V
31 °C 10 km+ - Var   Var 3 kt METAR LFMH 221200Z AUTO VRB03KT CAVOK 31/15 Q1011
13:30
V
30 °C 10 km+ - Var   Var 2 kt METAR LFMH 221130Z AUTO VRB02KT CAVOK 30/15 Q1011
13:00
V
29 °C 10 km+ - 200°   200° 4 kt METAR LFMH 221100Z AUTO 20004KT 150V280 CAVOK 29/14 Q1012
12:30
V
29 °C 10 km+ - 190°   190° 5 kt METAR LFMH 221030Z AUTO 19005KT 150V240 CAVOK 29/15 Q1012
12:00
V
28 °C 10 km+ - 150°   150° 4 kt METAR LFMH 221000Z AUTO 15004KT 100V210 CAVOK 28/15 Q1013
11:30
V
27 °C 10 km+ - Var   Var 3 kt METAR LFMH 220930Z AUTO VRB03KT CAVOK 27/15 Q1013
11:00
V
26 °C 10 km+ - 150°   150° 5 kt METAR LFMH 220900Z AUTO 15005KT 070V210 CAVOK 26/15 Q1013
10:30
V
25 °C 10 km+ - 170°   170° 4 kt METAR LFMH 220830Z AUTO 17004KT 110V220 CAVOK 25/15 Q1014
10:00
V
24 °C 10 km+ - 160°   160° 6 kt METAR LFMH 220800Z AUTO 16006KT CAVOK 24/14 Q1014
09:30
V
23 °C 10 km+ - 170°   170° 6 kt METAR LFMH 220730Z AUTO 17006KT CAVOK 23/15 Q1014
09:00
V
22 °C 10 km+ - 160°   160° 7 kt METAR LFMH 220700Z AUTO 16007KT CAVOK 22/14 Q1015
08:30
V
20 °C 10 km+ - 170°   170° 3 kt METAR LFMH 220630Z AUTO 17003KT CAVOK 20/16 Q1015
08:00
V
18 °C 10 km+ - 180°   180° 2 kt METAR LFMH 220600Z AUTO 18002KT CAVOK 18/16 Q1015
07:30
V
16 °C 10 km+ - Var   000° 0 kt METAR LFMH 220530Z AUTO 00000KT CAVOK 16/15 Q1015
07:00
V
16 °C 10 km+ - 050°   050° 3 kt METAR LFMH 220500Z AUTO 05003KT CAVOK 16/14 Q1015
06:30
V
16 °C 10 km+ - Var   Var 1 kt METAR LFMH 220430Z AUTO VRB01KT CAVOK 16/15 Q1015
06:00
V
15 °C 10 km+ - 170°   170° 4 kt METAR LFMH 220400Z AUTO 17004KT CAVOK 15/14 Q1015
05:30
V
16 °C 10 km+ - Var   000° 0 kt METAR LFMH 220330Z AUTO 00000KT CAVOK 16/14 Q1015
05:00
V
16 °C 10 km+ - Var   Var 3 kt METAR LFMH 220300Z AUTO VRB03KT CAVOK 16/14 Q1015
04:30
V
16 °C 10 km+ - Var   000° 0 kt METAR LFMH 220230Z AUTO 00000KT CAVOK 16/14 Q1015
04:00
V
17 °C 10 km+ - Var   000° 0 kt METAR LFMH 220200Z AUTO 00000KT CAVOK 17/14 Q1015
03:30
V
17 °C 10 km+ - 130°   130° 2 kt METAR LFMH 220130Z AUTO 13002KT CAVOK 17/15 Q1015
03:00
V
18 °C 10 km+ - Var   000° 0 kt METAR LFMH 220100Z AUTO 00000KT CAVOK 18/15 Q1016
02:30
V
20 °C 10 km+ - Var   Var 2 kt METAR LFMH 220030Z AUTO VRB02KT CAVOK 20/15 Q1016
02:00
V
18 °C 10 km+ - Var   Var 2 kt METAR LFMH 220000Z AUTO VRB02KT CAVOK 18/14 Q1016
01:30
V
21 °C 10 km+ - 190°   190° 3 kt METAR LFMH 212330Z AUTO 19003KT CAVOK 21/16 Q1016
01:00
V
20 °C 10 km+ - Var   Var 2 kt METAR LFMH 212300Z AUTO VRB02KT CAVOK 20/15 Q1017
00:30
V
20 °C 10 km+ - Var   Var 2 kt METAR LFMH 212230Z AUTO VRB02KT CAVOK 20/15 Q1017
00:00
V
22 °C 10 km+ - Var   Var 2 kt METAR LFMH 212200Z AUTO VRB02KT CAVOK 22/15 Q1017

21 maggio 2022

Tempo Codice Tempo metereologico Temp. Vista Nuvole Vento METAR/SPECI
23:30
V
22 °C 10 km+ - Var   Var 2 kt METAR LFMH 212130Z AUTO VRB02KT CAVOK 22/15 Q1017
23:00
V
23 °C 10 km+ - 310°   310° 3 kt METAR LFMH 212100Z AUTO 31003KT CAVOK 23/15 Q1017
22:30
V
25 °C 10 km+ - Var   Var 1 kt METAR LFMH 212030Z AUTO VRB01KT CAVOK 25/15 Q1017
22:00
V
26 °C 10 km+ - Var   Var 3 kt METAR LFMH 212000Z AUTO VRB03KT CAVOK 26/14 Q1017
21:30
V
26 °C 10 km+ - Var   Var 3 kt METAR LFMH 211930Z AUTO VRB03KT CAVOK 26/14 Q1017
21:00
V
27 °C 10 km+ - 050°   050° 4 kt METAR LFMH 211900Z AUTO 05004KT CAVOK 27/14 Q1017
20:30
V
28 °C 10 km+ - 070°   070° 4 kt METAR LFMH 211830Z AUTO 07004KT 030V130 CAVOK 28/14 Q1017
20:00
V
29 °C 10 km+ - 100°   100° 6 kt METAR LFMH 211800Z AUTO 10006KT 060V130 CAVOK 29/14 Q1017
19:30
V
29 °C 10 km+ - 100°   100° 10 kt METAR LFMH 211730Z AUTO 10010KT 060V130 CAVOK 29/14 Q1017
19:00
V
30 °C 10 km+ - 110°   110° 10 kt METAR LFMH 211700Z AUTO 11010KT CAVOK 30/15 Q1017
18:30
V
30 °C 10 km+ - 100°   100° 9 kt METAR LFMH 211630Z AUTO 10009KT 070V130 CAVOK 30/15 Q1017
18:00
V
31 °C 10 km+ - Var   Var 8 kt METAR LFMH 211600Z AUTO VRB08KT CAVOK 31/14 Q1018
17:30
V
31 °C 10 km+ - 110°   110° 6 kt METAR LFMH 211530Z AUTO 11006KT 060V160 CAVOK 31/15 Q1018
17:00
V
32 °C 10 km+ - 130°   130° 8 kt METAR LFMH 211500Z AUTO 13008KT 100V170 CAVOK 32/15 Q1018
Dati più vecchi

Scarica la nostra applicazione

Facile accesso a tutte le previsioni dell'aviazione sul tuo cellulare e tablet.
Con molte caratteristiche non disponibili sul sito web, come il supporto offline e una lista personale di aeroporti.

Noi e le terze parti seguiamo il tuo comportamento in internet sul nostro sito web con i cookie. Se continui, riteniamo che tu sia d'accordo con la nostra politica sui cookie. Per saperne di più